createdAt,value
2023-03-11T00:02:15.349Z,48.59
2023-03-11T00:04:42.727Z,48.58
2023-03-11T00:07:15.361Z,48.59
2023-03-11T00:12:32.366Z,48.64
2023-03-11T00:14:58.802Z,48.55
2023-03-11T00:17:25.249Z,48.37
2023-03-11T00:19:58.356Z,48.20
2023-03-11T00:22:25.666Z,48.61
2023-03-11T00:27:53.347Z,48.51
2023-03-11T00:30:26.393Z,48.53
2023-03-11T00:32:53.836Z,48.60
2023-03-11T00:35:27.343Z,48.61
2023-03-11T00:37:54.672Z,48.80
2023-03-11T00:43:11.365Z,48.77
2023-03-11T00:45:45.378Z,48.39
2023-03-11T00:48:11.887Z,48.64
2023-03-11T00:50:39.278Z,48.39
2023-03-11T00:53:13.361Z,48.67
2023-03-11T00:58:31.381Z,48.45
2023-03-11T01:00:57.849Z,48.78
2023-03-11T01:03:30.371Z,48.70
2023-03-11T01:05:57.669Z,48.56
2023-03-11T01:08:31.358Z,49.09
2023-03-11T01:13:49.387Z,48.68
2023-03-11T01:16:15.882Z,48.70
2023-03-11T01:18:42.347Z,48.51
2023-03-11T01:21:15.373Z,48.83
2023-03-11T01:23:42.711Z,48.59
2023-03-11T01:29:11.389Z,48.86
2023-03-11T01:31:45.388Z,48.76
2023-03-11T01:34:13.713Z,48.58
2023-03-11T01:36:40.156Z,48.65
2023-03-11T01:39:06.593Z,48.81
2023-03-11T01:44:27.956Z,48.66
2023-03-11T01:46:55.362Z,48.90
2023-03-11T01:49:22.721Z,49.02
2023-03-11T01:51:50.039Z,48.85
2023-03-11T01:54:17.323Z,48.99
2023-03-11T01:59:29.644Z,48.90
2023-03-11T02:01:56.098Z,48.56
2023-03-11T02:04:23.419Z,48.53
2023-03-11T02:06:51.397Z,48.68
2023-03-11T02:09:19.691Z,48.71
2023-03-11T02:14:40.140Z,48.80
2023-03-11T02:17:07.498Z,48.63
2023-03-11T02:19:33.920Z,48.49
2023-03-11T02:22:02.250Z,48.80
2023-03-11T02:24:29.601Z,49.14
2023-03-11T02:29:51.503Z,48.24
2023-03-11T02:32:18.026Z,48.50
2023-03-11T02:34:44.530Z,48.35
2023-03-11T02:37:10.983Z,48.76
2023-03-11T02:39:37.461Z,48.60
2023-03-11T02:44:48.245Z,48.19
2023-03-11T02:47:14.730Z,48.63
2023-03-11T02:49:41.971Z,48.84
2023-03-11T02:52:10.274Z,48.56
2023-03-11T02:54:37.508Z,48.36
2023-03-11T03:00:00.268Z,48.65
2023-03-11T03:02:26.833Z,48.73
2023-03-11T03:04:53.254Z,48.46
2023-03-11T03:07:19.622Z,48.17
2023-03-11T03:09:47.911Z,48.44
2023-03-11T03:15:00.482Z,48.51
2023-03-11T03:17:29.754Z,48.37
2023-03-11T03:19:58.951Z,48.19
2023-03-11T03:22:25.391Z,48.03
2023-03-11T03:24:51.789Z,48.31
2023-03-11T03:30:13.918Z,48.77
2023-03-11T03:32:40.359Z,48.46
2023-03-11T03:35:07.660Z,48.08
2023-03-11T03:37:34.153Z,48.43
2023-03-11T03:40:00.475Z,48.33
2023-03-11T03:45:11.776Z,48.10
2023-03-11T03:47:38.104Z,48.06
2023-03-11T03:50:04.586Z,47.99
2023-03-11T03:52:30.975Z,48.36
2023-03-11T03:54:58.182Z,48.19
2023-03-11T04:00:19.192Z,48.39
2023-03-11T04:02:45.511Z,48.69
2023-03-11T04:05:11.889Z,48.15
2023-03-11T04:07:38.268Z,48.04
2023-03-11T04:10:04.639Z,48.51
2023-03-11T04:15:24.914Z,47.93
2023-03-11T04:17:51.323Z,48.16
2023-03-11T04:20:18.541Z,48.43
2023-03-11T04:22:44.854Z,48.56
2023-03-11T04:25:11.215Z,47.93
2023-03-11T04:30:22.288Z,48.58
2023-03-11T04:32:48.684Z,48.27
2023-03-11T04:35:15.064Z,48.36
2023-03-11T04:37:41.398Z,47.51
2023-03-11T04:40:07.760Z,47.80
2023-03-11T04:45:28.044Z,47.69
2023-03-11T04:47:54.452Z,47.49
2023-03-11T04:50:20.802Z,47.54
2023-03-11T04:52:47.137Z,47.31
2023-03-11T04:55:13.478Z,47.73
2023-03-11T04:57:39.842Z,47.82
2023-03-11T05:00:06.430Z,47.83
2023-03-11T05:02:32.806Z,48.09
2023-03-11T05:04:59.524Z,48.21
2023-03-11T05:07:26.916Z,48.21
2023-03-11T05:09:53.385Z,48.22
2023-03-11T05:12:20.634Z,47.68
2023-03-11T05:14:47.055Z,47.88
2023-03-11T05:17:13.460Z,48.02
2023-03-11T05:19:40.738Z,47.94
2023-03-11T05:22:07.133Z,48.26
2023-03-11T05:24:33.469Z,48.33
2023-03-11T05:26:59.970Z,48.07
2023-03-11T05:29:26.448Z,47.89
2023-03-11T05:31:53.720Z,48.08
2023-03-11T05:34:20.167Z,47.67
2023-03-11T05:36:46.547Z,47.88
2023-03-11T05:39:13.908Z,48.01
2023-03-11T05:41:41.319Z,47.82
2023-03-11T05:44:07.807Z,47.84
2023-03-11T05:46:35.310Z,47.97
2023-03-11T05:49:01.826Z,47.63
2023-03-11T05:51:28.308Z,47.56
2023-03-11T05:53:54.782Z,47.60
2023-03-11T05:56:22.177Z,47.99
2023-03-11T05:58:48.721Z,47.78
2023-03-11T06:01:16.228Z,48.14
2023-03-11T06:03:43.795Z,47.92
2023-03-11T06:06:10.485Z,48.04
2023-03-11T06:08:36.927Z,48.17
2023-03-11T06:11:03.412Z,48.27
2023-03-11T06:13:30.845Z,48.50
2023-03-11T06:18:51.454Z,48.33
2023-03-11T06:21:18.009Z,48.93
2023-03-11T06:23:44.487Z,48.73
2023-03-11T06:26:10.977Z,48.64
2023-03-11T06:28:37.418Z,48.50
2023-03-11T06:33:48.531Z,48.12
2023-03-11T06:36:14.934Z,48.19
2023-03-11T06:38:41.479Z,48.16
2023-03-11T06:41:08.726Z,48.05
2023-03-11T06:43:35.229Z,48.50
2023-03-11T06:48:55.293Z,48.91
2023-03-11T06:51:21.835Z,48.59
2023-03-11T06:53:49.143Z,48.84
2023-03-11T06:56:16.360Z,49.51
2023-03-11T06:58:42.808Z,49.03
2023-03-11T07:03:53.415Z,49.61
2023-03-11T07:06:20.864Z,49.54
2023-03-11T07:08:47.393Z,50.01
2023-03-11T07:11:14.820Z,50.00
2023-03-11T07:13:41.295Z,50.48
2023-03-11T07:18:52.915Z,49.91
2023-03-11T07:21:19.877Z,50.04
2023-03-11T07:23:46.429Z,49.21
2023-03-11T07:26:14.254Z,49.08
2023-03-11T07:28:40.771Z,49.58
2023-03-11T07:34:02.473Z,49.45
2023-03-11T07:36:29.068Z,49.42
2023-03-11T07:38:56.474Z,49.33
2023-03-11T07:41:23.842Z,49.55
2023-03-11T07:43:50.328Z,49.90
2023-03-11T07:49:01.001Z,49.35
2023-03-11T07:51:28.372Z,49.79
2023-03-11T07:53:54.860Z,50.11
2023-03-11T07:56:21.322Z,51.00
2023-03-11T07:58:47.806Z,50.96
2023-03-11T08:04:08.995Z,51.46
2023-03-11T08:06:36.625Z,51.48
2023-03-11T08:09:03.077Z,51.41
2023-03-11T08:11:29.474Z,51.51
2023-03-11T08:13:56.730Z,51.12
2023-03-11T08:19:07.844Z,51.11
2023-03-11T08:21:34.246Z,50.98
2023-03-11T08:24:01.527Z,51.23
2023-03-11T08:26:27.959Z,50.99
2023-03-11T08:28:54.425Z,51.55
2023-03-11T08:34:17.385Z,51.00
2023-03-11T08:36:43.967Z,51.18
2023-03-11T08:39:13.186Z,51.81
2023-03-11T08:41:39.767Z,51.69
2023-03-11T08:44:06.133Z,51.60
2023-03-11T08:49:17.481Z,51.52
2023-03-11T08:51:43.821Z,52.31
2023-03-11T08:54:11.082Z,51.43
2023-03-11T08:56:37.508Z,51.56
2023-03-11T08:59:03.912Z,51.57
2023-03-11T09:04:15.052Z,51.44
2023-03-11T09:06:41.420Z,51.14
2023-03-11T09:09:07.790Z,51.60
2023-03-11T09:11:34.142Z,51.42
2023-03-11T09:14:00.692Z,51.18
2023-03-11T09:16:27.187Z,51.38
2023-03-11T09:18:53.555Z,51.33
2023-03-11T09:21:20.762Z,51.54
2023-03-11T09:23:47.137Z,50.97
2023-03-11T09:26:14.376Z,51.15
2023-03-11T09:28:40.810Z,51.09
2023-03-11T09:31:08.075Z,51.08
2023-03-11T09:33:34.595Z,51.15
2023-03-11T09:36:03.785Z,50.81
2023-03-11T09:38:31.087Z,50.66
2023-03-11T09:40:57.478Z,51.10
2023-03-11T09:43:23.871Z,50.85
2023-03-11T09:45:50.352Z,50.77
2023-03-11T09:48:16.750Z,51.31
2023-03-11T09:50:43.178Z,51.18
2023-03-11T09:53:09.571Z,50.75
2023-03-11T09:55:38.735Z,50.67
2023-03-11T09:58:05.169Z,50.51
2023-03-11T10:00:31.625Z,50.54
2023-03-11T10:02:58.122Z,51.20
2023-03-11T10:05:25.566Z,50.89
2023-03-11T10:07:52.993Z,51.16
2023-03-11T10:10:20.419Z,50.58
2023-03-11T10:12:46.934Z,50.61
2023-03-11T10:15:14.309Z,51.15
2023-03-11T10:17:41.696Z,51.19
2023-03-11T10:22:53.895Z,50.70
2023-03-11T10:25:20.364Z,50.65
2023-03-11T10:27:47.816Z,50.74
2023-03-11T10:30:15.216Z,50.53
2023-03-11T10:32:42.500Z,50.75
2023-03-11T10:38:05.299Z,50.74
2023-03-11T10:40:32.587Z,50.89
2023-03-11T10:42:59.064Z,50.35
2023-03-11T10:45:25.485Z,50.93
2023-03-11T10:47:51.906Z,49.20
2023-03-11T10:53:13.224Z,48.59
2023-03-11T10:55:39.721Z,48.66
2023-03-11T10:58:06.221Z,49.24
2023-03-11T11:00:32.711Z,48.81
2023-03-11T11:03:00.006Z,49.21
2023-03-11T11:08:20.621Z,49.59
2023-03-11T11:10:47.110Z,48.65
2023-03-11T11:13:14.473Z,49.17
2023-03-11T11:15:41.761Z,49.13
2023-03-11T11:18:08.159Z,49.06
2023-03-11T11:23:29.505Z,49.43
2023-03-11T11:25:55.941Z,49.18
2023-03-11T11:28:22.364Z,49.03
2023-03-11T11:30:48.775Z,49.07
2023-03-11T11:33:15.169Z,49.18
2023-03-11T11:38:26.077Z,49.19
2023-03-11T11:40:52.417Z,48.57
2023-03-11T11:43:18.795Z,49.31
2023-03-11T11:45:45.166Z,49.02
2023-03-11T11:48:12.104Z,49.06
2023-03-11T11:53:22.713Z,48.81
2023-03-11T11:55:49.062Z,48.79
2023-03-11T11:58:15.396Z,48.55
2023-03-11T12:00:41.753Z,48.96
2023-03-11T12:03:08.096Z,48.57
2023-03-11T12:08:28.405Z,48.44
2023-03-11T12:10:54.766Z,48.64
2023-03-11T12:13:21.116Z,48.87
2023-03-11T12:15:47.532Z,48.73
2023-03-11T12:18:13.899Z,49.22
2023-03-11T12:23:33.958Z,48.96
2023-03-11T12:26:00.565Z,49.19
2023-03-11T12:28:26.909Z,48.46
2023-03-11T12:30:53.326Z,48.19
2023-03-11T12:33:20.792Z,48.13
2023-03-11T12:38:31.069Z,48.74
2023-03-11T12:40:57.400Z,48.48
2023-03-11T12:43:23.815Z,48.06
2023-03-11T12:45:50.230Z,47.98
2023-03-11T12:48:16.598Z,47.67
2023-03-11T12:53:27.028Z,47.77
2023-03-11T12:55:54.406Z,47.62
2023-03-11T12:58:23.539Z,47.58
2023-03-11T13:00:51.117Z,47.31
2023-03-11T13:03:17.676Z,47.49
2023-03-11T13:08:38.144Z,47.78
2023-03-11T13:11:04.816Z,47.55
2023-03-11T13:13:31.240Z,47.54
2023-03-11T13:15:57.717Z,47.71
2023-03-11T13:18:24.203Z,47.50
2023-03-11T13:23:35.514Z,47.77
2023-03-11T13:26:04.714Z,47.98
2023-03-11T13:28:33.954Z,47.51
2023-03-11T13:31:00.334Z,47.57
2023-03-11T13:33:26.765Z,47.96
2023-03-11T13:38:47.223Z,47.43
2023-03-11T13:41:13.646Z,47.58
2023-03-11T13:43:40.864Z,47.65
2023-03-11T13:46:07.314Z,47.63
2023-03-11T13:48:35.526Z,47.25
2023-03-11T13:53:57.585Z,47.42
2023-03-11T13:56:23.941Z,47.11
2023-03-11T13:58:50.373Z,47.17
2023-03-11T14:01:17.828Z,46.99
2023-03-11T14:03:44.279Z,47.00
2023-03-11T14:09:04.604Z,47.11
2023-03-11T14:11:31.046Z,46.94
2023-03-11T14:13:57.455Z,47.07
2023-03-11T14:16:23.872Z,46.90
2023-03-11T14:18:50.256Z,47.22
2023-03-11T14:24:10.532Z,45.78
2023-03-11T14:26:37.913Z,46.00
2023-03-11T14:29:05.276Z,45.53
2023-03-11T14:31:31.750Z,45.08
2023-03-11T14:34:00.109Z,44.87
2023-03-11T14:39:21.326Z,45.55
2023-03-11T14:41:47.864Z,45.72
2023-03-11T14:44:15.330Z,44.64
2023-03-11T14:46:45.122Z,44.83
2023-03-11T14:49:11.691Z,45.41
2023-03-11T14:51:39.012Z,45.57
2023-03-11T14:54:05.754Z,44.95
2023-03-11T14:56:33.174Z,45.17
2023-03-11T14:59:07.261Z,45.59
2023-03-11T15:01:35.084Z,45.41
2023-03-11T15:04:01.524Z,45.23
2023-03-11T15:06:30.693Z,45.20
2023-03-11T15:08:58.041Z,45.42
2023-03-11T15:11:25.262Z,45.49
2023-03-11T15:13:52.077Z,44.75
2023-03-11T15:16:21.266Z,44.79
2023-03-11T15:18:47.773Z,44.75
2023-03-11T15:21:15.190Z,44.84
2023-03-11T15:23:41.649Z,44.87
2023-03-11T15:26:08.462Z,44.98
2023-03-11T15:28:34.953Z,44.87
2023-03-11T15:31:01.814Z,44.54
2023-03-11T15:33:28.320Z,44.76
2023-03-11T15:35:55.919Z,44.52
2023-03-11T15:38:22.518Z,44.19
2023-03-11T15:40:49.290Z,44.24
2023-03-11T15:43:15.826Z,44.19
2023-03-11T15:45:42.329Z,44.11
2023-03-11T15:48:08.831Z,44.48
2023-03-11T15:50:52.280Z,44.15
2023-03-11T15:53:19.224Z,44.09
2023-03-11T15:55:45.680Z,44.56
2023-03-11T15:58:12.364Z,44.38
2023-03-11T16:00:39.786Z,45.04
2023-03-11T16:03:06.280Z,45.57
2023-03-11T16:05:32.783Z,45.60
2023-03-11T16:07:59.257Z,46.23
2023-03-11T16:10:25.817Z,46.58
2023-03-11T16:12:52.314Z,46.88
2023-03-11T16:15:18.790Z,47.17
2023-03-11T16:17:49.738Z,47.11
2023-03-11T16:20:16.705Z,47.60
2023-03-11T16:22:43.227Z,47.74
2023-03-11T16:28:03.895Z,48.37
2023-03-11T16:30:30.558Z,48.34
2023-03-11T16:32:57.094Z,48.44
2023-03-11T16:35:24.586Z,48.64
2023-03-11T16:37:51.146Z,48.83
2023-03-11T16:43:02.584Z,48.82
2023-03-11T16:45:29.883Z,49.27
2023-03-11T16:47:56.473Z,49.01
2023-03-11T16:50:22.950Z,49.31
2023-03-11T16:52:49.436Z,49.27
2023-03-11T16:58:09.901Z,49.45
2023-03-11T17:00:36.526Z,49.49
2023-03-11T17:03:02.951Z,49.95
2023-03-11T17:05:30.306Z,49.04
2023-03-11T17:07:57.663Z,49.80
2023-03-11T17:13:09.642Z,50.33
2023-03-11T17:15:36.873Z,50.27
2023-03-11T17:18:04.145Z,50.92
2023-03-11T17:20:32.463Z,50.76
2023-03-11T17:22:58.882Z,50.73
2023-03-11T17:28:19.358Z,51.43
2023-03-11T17:30:45.953Z,51.38
2023-03-11T17:33:13.204Z,51.88
2023-03-11T17:35:42.001Z,52.41
2023-03-11T17:38:08.424Z,52.15
2023-03-11T17:43:18.785Z,52.15
2023-03-11T17:45:45.129Z,52.59
2023-03-11T17:48:11.472Z,52.90
2023-03-11T17:50:37.844Z,52.78
2023-03-11T17:53:04.221Z,53.23
2023-03-11T17:58:24.929Z,53.38
2023-03-11T18:00:51.600Z,53.47
2023-03-11T18:03:17.985Z,53.71
2023-03-11T18:05:44.312Z,52.79
2023-03-11T18:08:10.724Z,52.33
2023-03-11T18:13:21.981Z,52.31
2023-03-11T18:15:49.290Z,52.50
2023-03-11T18:18:16.524Z,52.54
2023-03-11T18:20:43.218Z,52.51
2023-03-11T18:23:09.945Z,52.31
2023-03-11T18:28:31.146Z,51.84
2023-03-11T18:30:57.652Z,51.88
2023-03-11T18:33:24.110Z,51.88
2023-03-11T18:35:51.583Z,52.21
2023-03-11T18:38:19.008Z,51.88
2023-03-11T18:43:41.052Z,51.74
2023-03-11T18:46:09.632Z,51.64
2023-03-11T18:48:37.951Z,52.40
2023-03-11T18:51:04.381Z,51.98
2023-03-11T18:53:30.752Z,51.80
2023-03-11T18:58:41.908Z,51.67
2023-03-11T19:01:09.170Z,51.81
2023-03-11T19:03:35.564Z,51.76
2023-03-11T19:06:01.945Z,51.46
2023-03-11T19:08:28.487Z,51.77
2023-03-11T19:13:46.653Z,51.83
2023-03-11T19:16:13.217Z,52.09
2023-03-11T19:18:39.796Z,52.02
2023-03-11T19:21:06.151Z,52.44
2023-03-11T19:23:32.485Z,52.43
2023-03-11T19:28:52.950Z,52.25
2023-03-11T19:31:19.364Z,52.59
2023-03-11T19:33:45.764Z,52.80
2023-03-11T19:36:12.410Z,52.72
2023-03-11T19:38:38.843Z,52.72
2023-03-11T19:43:48.773Z,52.46
2023-03-11T19:46:15.286Z,52.56
2023-03-11T19:48:41.855Z,52.67
2023-03-11T19:51:08.185Z,52.96
2023-03-11T19:53:34.600Z,52.67
2023-03-11T19:56:00.940Z,52.73
2023-03-11T19:58:30.127Z,52.31
2023-03-11T20:00:57.162Z,52.67
2023-03-11T20:03:23.527Z,52.45
2023-03-11T20:05:49.919Z,52.78
2023-03-11T20:08:16.396Z,52.46
2023-03-11T20:10:42.808Z,52.44
2023-03-11T20:13:09.329Z,52.38
2023-03-11T20:15:38.518Z,52.57
2023-03-11T20:18:05.187Z,52.56
2023-03-11T20:20:31.600Z,52.81
2023-03-11T20:23:00.817Z,52.74
2023-03-11T20:25:27.155Z,52.72
2023-03-11T20:27:53.560Z,52.71
2023-03-11T20:30:20.174Z,52.69
2023-03-11T20:32:46.624Z,53.23
2023-03-11T20:35:13.036Z,52.79
2023-03-11T20:37:39.403Z,52.22
2023-03-11T20:40:05.785Z,52.64
2023-03-11T20:42:32.218Z,52.70
2023-03-11T20:44:58.589Z,52.02
2023-03-11T20:47:25.886Z,52.23
2023-03-11T20:49:52.405Z,51.92
2023-03-11T20:52:20.002Z,52.12
2023-03-11T20:54:46.484Z,51.97
2023-03-11T20:57:13.830Z,51.88
2023-03-11T20:59:40.260Z,52.18
2023-03-11T21:02:06.958Z,51.92
2023-03-11T21:04:33.509Z,51.70
2023-03-11T21:07:00.023Z,51.78
2023-03-11T21:09:27.465Z,51.76
2023-03-11T21:11:55.064Z,49.37
2023-03-11T21:17:15.977Z,48.73
2023-03-11T21:19:43.679Z,47.93
2023-03-11T21:22:12.267Z,48.46
2023-03-11T21:24:38.735Z,47.81
2023-03-11T21:27:05.295Z,47.81
2023-03-11T21:32:16.711Z,47.13
2023-03-11T21:34:44.216Z,47.31
2023-03-11T21:37:11.850Z,46.88
2023-03-11T21:39:39.286Z,46.84
2023-03-11T21:42:05.857Z,46.99
2023-03-11T21:47:17.208Z,46.20
2023-03-11T21:49:45.656Z,47.05
2023-03-11T21:52:12.989Z,46.98
2023-03-11T21:54:41.350Z,46.48
2023-03-11T21:57:07.849Z,46.76
2023-03-11T22:02:28.432Z,46.50
2023-03-11T22:04:55.937Z,46.66
2023-03-11T22:07:22.388Z,46.86
2023-03-11T22:09:49.237Z,46.67
2023-03-11T22:12:16.575Z,46.25
2023-03-11T22:17:27.185Z,46.78
2023-03-11T22:19:53.687Z,47.19
2023-03-11T22:22:20.201Z,46.41
2023-03-11T22:24:46.569Z,47.01
2023-03-11T22:27:12.948Z,46.57
2023-03-11T22:32:23.213Z,46.83
2023-03-11T22:34:49.557Z,46.46
2023-03-11T22:37:16.141Z,46.39
2023-03-11T22:39:42.491Z,46.65
2023-03-11T22:42:09.701Z,46.38
2023-03-11T22:47:29.858Z,46.67
2023-03-11T22:49:56.222Z,46.29
2023-03-11T22:52:22.531Z,46.94
2023-03-11T22:54:49.110Z,46.17
2023-03-11T22:57:15.630Z,46.73
2023-03-11T23:02:26.168Z,46.05
2023-03-11T23:04:52.497Z,45.65
2023-03-11T23:07:18.828Z,45.90
2023-03-11T23:09:45.177Z,45.41
2023-03-11T23:12:11.545Z,45.75
2023-03-11T23:17:21.876Z,46.00
2023-03-11T23:19:48.194Z,46.56
2023-03-11T23:22:14.604Z,45.80
2023-03-11T23:24:40.930Z,46.24
2023-03-11T23:27:07.271Z,45.61
2023-03-11T23:32:27.598Z,45.59
2023-03-11T23:34:54.029Z,45.78
2023-03-11T23:37:20.376Z,45.14
2023-03-11T23:39:46.722Z,45.34
2023-03-11T23:42:25.093Z,45.80
2023-03-11T23:47:36.185Z,45.48
2023-03-11T23:50:02.516Z,45.19
2023-03-11T23:52:28.869Z,45.51
2023-03-11T23:54:55.220Z,45.94
2023-03-11T23:57:21.558Z,45.48
